EDSB

Karlsruhe Baden-Baden Airport

Baden-Baden, Germany
METAR EDSB 121020Z VRB01KT 1500 BR OVC002 01/01 Q1024
Observed Flight Rules
Dec-12 @ 10:20 UTC (15 minutes ago) Instrument Flight Rules
Wind Visibility Clouds Conditions
Variable at 1 knots 1,497 meters
  • Overcast at 200' AGL
  • Mist
Temperatures Readings
Current 1°C / 34°F
Dewpoint 1°C / 34°F
Humidity 100%
Altimeter 30.24" Hg
Pressure 1024 hPa
Elevation 124
METAR EDSB 121020Z VRB01KT 1500 BR OVC002 01/01 Q1024
Observed Flight Rules
Dec-12 @ 10:20 UTC
(15 minutes ago)
LIFR
Wind Visibility
Variable at 1 knots 1,497 meters
Clouds
  • Overcast at 200' AGL
Conditions
  • Mist
Temperature Dewpoint
1°C / 34°F 1°C / 34°F
Humidity Altimeter Pressure
100% 30.24" Hg 1024 hPa